createdAt,value
2023-04-24T00:01:48.349Z,18.63
2023-04-24T00:04:18.082Z,18.85
2023-04-24T00:06:50.600Z,19.03
2023-04-24T00:09:18.140Z,18.63
2023-04-24T00:11:46.504Z,18.67
2023-04-24T00:14:14.048Z,19.16
2023-04-24T00:16:40.797Z,18.98
2023-04-24T00:19:07.821Z,19.25
2023-04-24T00:21:34.626Z,19.37
2023-04-24T00:24:01.164Z,19.15
2023-04-24T00:26:27.696Z,19.14
2023-04-24T00:28:54.132Z,18.83
2023-04-24T00:31:20.951Z,18.97
2023-04-24T00:33:47.648Z,18.76
2023-04-24T00:36:14.720Z,18.77
2023-04-24T00:38:41.520Z,18.92
2023-04-24T00:41:08.348Z,18.71
2023-04-24T00:43:35.368Z,18.93
2023-04-24T00:46:02.882Z,19.37
2023-04-24T00:48:29.620Z,19.24
2023-04-24T00:50:56.287Z,19.15
2023-04-24T00:53:23.056Z,19.12
2023-04-24T00:55:49.836Z,18.96
2023-04-24T00:58:16.674Z,18.83
2023-04-24T01:00:44.084Z,19.22
2023-04-24T01:03:12.105Z,19.42
2023-04-24T01:05:38.547Z,18.86
2023-04-24T01:08:05.355Z,18.60
2023-04-24T01:10:34.056Z,18.76
2023-04-24T01:13:00.991Z,19.19
2023-04-24T01:15:27.820Z,18.87
2023-04-24T01:17:55.531Z,19.07
2023-04-24T01:20:22.762Z,19.15
2023-04-24T01:22:49.627Z,19.01
2023-04-24T01:25:16.209Z,19.20
2023-04-24T01:27:42.909Z,19.08
2023-04-24T01:30:10.147Z,19.16
2023-04-24T01:32:37.588Z,18.87
2023-04-24T01:35:04.538Z,18.60
2023-04-24T01:37:33.123Z,19.02
2023-04-24T01:40:00.161Z,19.21
2023-04-24T01:42:26.810Z,19.00
2023-04-24T01:44:53.708Z,17.90
2023-04-24T01:47:20.632Z,18.89
2023-04-24T01:49:49.056Z,19.05
2023-04-24T01:52:16.160Z,18.65
2023-04-24T01:54:42.722Z,18.76
2023-04-24T01:57:11.164Z,18.46
2023-04-24T01:59:37.706Z,18.65
2023-04-24T02:02:04.625Z,18.82
2023-04-24T02:04:31.036Z,18.83
2023-04-24T02:06:57.779Z,18.62
2023-04-24T02:09:24.532Z,18.06
2023-04-24T02:11:51.249Z,18.57
2023-04-24T02:14:17.666Z,18.32
2023-04-24T02:16:44.976Z,18.29
2023-04-24T02:19:11.688Z,18.59
2023-04-24T02:21:38.618Z,18.59
2023-04-24T02:24:05.250Z,18.37
2023-04-24T02:26:32.683Z,17.97
2023-04-24T02:28:59.236Z,18.43
2023-04-24T02:31:25.696Z,18.49
2023-04-24T02:33:52.218Z,18.36
2023-04-24T02:36:19.104Z,18.48
2023-04-24T02:38:45.625Z,18.40
2023-04-24T02:41:12.198Z,18.24
2023-04-24T02:43:38.721Z,18.24
2023-04-24T02:46:05.887Z,18.44
2023-04-24T02:48:32.669Z,18.45
2023-04-24T02:50:59.227Z,18.39
2023-04-24T02:53:26.401Z,18.42
2023-04-24T02:55:53.134Z,18.16
2023-04-24T02:58:20.944Z,17.91
2023-04-24T03:00:48.315Z,17.83
2023-04-24T03:03:15.155Z,17.80
2023-04-24T03:05:42.073Z,17.86
2023-04-24T03:08:08.738Z,17.93
2023-04-24T03:10:35.605Z,17.85
2023-04-24T03:13:02.652Z,17.89
2023-04-24T03:15:29.232Z,17.83
2023-04-24T03:17:56.863Z,17.72
2023-04-24T03:20:23.968Z,17.67
2023-04-24T03:22:50.781Z,17.32
2023-04-24T03:25:17.187Z,17.86
2023-04-24T03:27:43.728Z,17.52
2023-04-24T03:30:10.383Z,17.50
2023-04-24T03:32:38.329Z,17.67
2023-04-24T03:35:05.229Z,17.59
2023-04-24T03:37:31.987Z,17.07
2023-04-24T03:39:59.255Z,17.18
2023-04-24T03:42:25.710Z,17.03
2023-04-24T03:44:54.671Z,16.97
2023-04-24T03:47:21.321Z,17.30
2023-04-24T03:49:47.809Z,16.89
2023-04-24T03:52:14.601Z,17.27
2023-04-24T03:54:41.756Z,16.74
2023-04-24T03:57:08.252Z,16.95
2023-04-24T03:59:35.152Z,17.21
2023-04-24T04:02:01.740Z,16.82
2023-04-24T04:04:28.474Z,17.00
2023-04-24T04:06:55.400Z,17.20
2023-04-24T04:09:22.176Z,16.89
2023-04-24T04:11:49.274Z,16.36
2023-04-24T04:14:15.881Z,16.97
2023-04-24T04:16:44.665Z,16.54
2023-04-24T04:19:12.132Z,16.56
2023-04-24T04:21:38.650Z,16.93
2023-04-24T04:24:06.475Z,17.20
2023-04-24T04:26:36.668Z,16.89
2023-04-24T04:29:04.168Z,16.65
2023-04-24T04:31:31.785Z,16.56
2023-04-24T04:33:59.847Z,16.82
2023-04-24T04:36:26.912Z,16.45
2023-04-24T04:38:55.680Z,16.41
2023-04-24T04:41:22.612Z,16.92
2023-04-24T04:43:52.000Z,16.83
2023-04-24T04:46:19.021Z,16.70
2023-04-24T04:48:47.038Z,16.50
2023-04-24T04:51:14.359Z,16.86
2023-04-24T04:53:41.208Z,16.77
2023-04-24T04:56:08.930Z,16.69
2023-04-24T04:58:35.392Z,16.70
2023-04-24T05:01:02.091Z,17.18
2023-04-24T05:03:29.006Z,16.63
2023-04-24T05:05:55.855Z,16.68
2023-04-24T05:10:52.842Z,17.28
2023-04-24T05:13:28.379Z,17.28
2023-04-24T05:15:58.868Z,16.87
2023-04-24T05:18:26.523Z,17.52
2023-04-24T05:20:52.979Z,17.62
2023-04-24T05:23:19.576Z,17.92
2023-04-24T05:25:48.002Z,17.72
2023-04-24T05:28:14.405Z,18.18
2023-04-24T05:30:41.304Z,18.37
2023-04-24T05:33:08.233Z,18.03
2023-04-24T05:35:39.858Z,18.11
2023-04-24T05:38:06.804Z,18.20
2023-04-24T05:40:33.530Z,18.55
2023-04-24T05:42:59.863Z,18.55
2023-04-24T05:45:26.445Z,18.65
2023-04-24T05:47:53.737Z,18.59
2023-04-24T05:50:21.131Z,18.55
2023-04-24T05:52:48.629Z,17.91
2023-04-24T05:55:18.910Z,18.61
2023-04-24T05:57:47.065Z,18.59
2023-04-24T06:00:14.086Z,18.37
2023-04-24T06:02:40.930Z,19.46
2023-04-24T06:05:09.296Z,19.13
2023-04-24T06:07:36.127Z,19.26
2023-04-24T06:10:02.447Z,18.96
2023-04-24T06:12:30.425Z,19.54
2023-04-24T06:14:57.246Z,19.56
2023-04-24T06:17:24.278Z,19.30
2023-04-24T06:19:51.991Z,19.17
2023-04-24T06:22:18.808Z,19.55
2023-04-24T06:24:45.833Z,19.05
2023-04-24T06:27:14.004Z,19.48
2023-04-24T06:29:42.245Z,19.54
2023-04-24T06:32:09.198Z,19.47
2023-04-24T06:34:36.818Z,20.28
2023-04-24T06:37:03.572Z,20.76
2023-04-24T06:39:30.240Z,19.99
2023-04-24T06:41:57.026Z,20.11
2023-04-24T06:44:23.683Z,20.74
2023-04-24T06:46:50.370Z,20.54
2023-04-24T06:49:17.049Z,19.70
2023-04-24T06:51:44.216Z,19.90
2023-04-24T06:54:11.263Z,20.43
2023-04-24T06:56:38.681Z,20.09
2023-04-24T06:59:05.214Z,20.50
2023-04-24T07:01:32.132Z,21.10
2023-04-24T07:03:58.770Z,20.40
2023-04-24T07:06:26.606Z,21.05
2023-04-24T07:08:53.735Z,21.47
2023-04-24T07:11:21.374Z,21.87
2023-04-24T07:13:48.814Z,21.44
2023-04-24T07:16:15.604Z,20.79
2023-04-24T07:18:42.216Z,20.97
2023-04-24T07:21:09.485Z,20.80
2023-04-24T07:23:36.267Z,21.35
2023-04-24T07:26:03.311Z,20.83
2023-04-24T07:28:32.181Z,20.17
2023-04-24T07:30:59.706Z,20.07
2023-04-24T07:33:26.634Z,20.55
2023-04-24T07:35:53.525Z,20.86
2023-04-24T07:38:23.156Z,20.95
2023-04-24T07:40:50.520Z,19.89
2023-04-24T07:43:17.635Z,20.49
2023-04-24T07:45:44.758Z,20.32
2023-04-24T07:48:11.674Z,20.26
2023-04-24T07:50:38.557Z,20.94
2023-04-24T07:53:05.385Z,21.03
2023-04-24T07:55:32.414Z,20.50
2023-04-24T07:58:00.236Z,20.14
2023-04-24T08:00:26.694Z,19.82
2023-04-24T08:02:53.657Z,20.13
2023-04-24T08:05:21.764Z,20.17
2023-04-24T08:07:49.921Z,19.82
2023-04-24T08:10:17.934Z,19.73
2023-04-24T08:12:44.586Z,20.57
2023-04-24T08:15:12.637Z,21.16
2023-04-24T08:17:39.496Z,20.94
2023-04-24T08:20:07.018Z,20.76
2023-04-24T08:22:34.156Z,21.10
2023-04-24T08:25:01.149Z,20.92
2023-04-24T08:27:29.613Z,21.46
2023-04-24T08:29:56.576Z,20.92
2023-04-24T08:32:23.391Z,21.57
2023-04-24T08:34:53.601Z,20.37
2023-04-24T08:37:20.261Z,20.69
2023-04-24T08:39:46.671Z,20.01
2023-04-24T08:42:14.243Z,20.07
2023-04-24T08:44:41.080Z,19.96
2023-04-24T08:47:09.981Z,20.43
2023-04-24T08:49:37.261Z,20.30
2023-04-24T08:52:03.860Z,20.59
2023-04-24T08:54:30.991Z,20.78
2023-04-24T08:57:02.334Z,20.35
2023-04-24T08:59:29.928Z,20.76
2023-04-24T09:01:58.295Z,21.02
2023-04-24T09:04:28.671Z,20.50
2023-04-24T09:06:57.356Z,22.00
2023-04-24T09:09:24.769Z,20.74
2023-04-24T09:11:52.359Z,21.26
2023-04-24T09:14:21.371Z,20.23
2023-04-24T09:16:48.592Z,21.16
2023-04-24T09:19:15.572Z,21.50
2023-04-24T09:21:45.735Z,21.33
2023-04-24T09:24:18.624Z,20.38
2023-04-24T09:26:45.572Z,20.70
2023-04-24T09:29:16.866Z,20.75
2023-04-24T09:31:43.895Z,20.94
2023-04-24T09:34:10.983Z,20.75
2023-04-24T09:36:39.075Z,20.75
2023-04-24T09:39:06.595Z,20.98
2023-04-24T09:41:33.730Z,21.66
2023-04-24T09:44:12.197Z,20.79
2023-04-24T09:46:38.894Z,20.95
2023-04-24T09:49:09.641Z,20.52
2023-04-24T09:51:40.088Z,21.00
2023-04-24T09:54:16.864Z,21.47
2023-04-24T09:56:45.622Z,21.69
2023-04-24T09:59:13.185Z,21.82
2023-04-24T10:01:42.900Z,20.92
2023-04-24T10:04:16.780Z,20.70
2023-04-24T10:06:43.709Z,20.93
2023-04-24T10:09:13.080Z,21.27
2023-04-24T10:11:42.673Z,21.21
2023-04-24T10:14:12.163Z,20.71
2023-04-24T10:16:40.618Z,22.14
2023-04-24T10:19:08.397Z,20.94
2023-04-24T10:21:40.110Z,20.61
2023-04-24T10:24:08.447Z,21.10
2023-04-24T10:26:35.957Z,20.78
2023-04-24T10:29:02.916Z,20.16
2023-04-24T10:31:33.292Z,20.76
2023-04-24T10:34:01.730Z,21.39
2023-04-24T10:36:33.384Z,21.32
2023-04-24T10:39:00.922Z,21.65
2023-04-24T10:41:27.855Z,22.35
2023-04-24T10:44:09.327Z,23.07
2023-04-24T10:46:36.051Z,23.15
2023-04-24T10:49:09.786Z,22.18
2023-04-24T10:51:54.380Z,23.29
2023-04-24T10:54:25.117Z,21.83
2023-04-24T10:56:52.787Z,21.50
2023-04-24T10:59:26.557Z,20.43
2023-04-24T11:01:56.759Z,20.12
2023-04-24T11:04:33.495Z,20.49
2023-04-24T11:07:01.375Z,20.78
2023-04-24T11:09:29.668Z,20.71
2023-04-24T11:12:10.167Z,21.64
2023-04-24T11:14:55.965Z,20.79
2023-04-24T11:17:36.165Z,21.00
2023-04-24T11:20:25.730Z,20.72
2023-04-24T11:22:58.656Z,20.27
2023-04-24T11:25:26.027Z,20.78
2023-04-24T11:28:04.186Z,20.60
2023-04-24T11:30:31.141Z,19.83
2023-04-24T11:33:03.295Z,20.08
2023-04-24T11:35:32.012Z,20.31
2023-04-24T11:40:29.609Z,20.54
2023-04-24T11:42:56.797Z,21.44
2023-04-24T11:45:24.732Z,22.09
2023-04-24T11:47:53.122Z,22.21
2023-04-24T11:50:20.866Z,22.24
2023-04-24T11:52:48.462Z,22.21
2023-04-24T11:55:15.327Z,21.88
2023-04-24T11:57:49.292Z,22.31
2023-04-24T12:00:23.028Z,23.18
2023-04-24T12:02:51.084Z,21.92
2023-04-24T12:05:22.702Z,21.81
2023-04-24T12:07:50.370Z,21.10
2023-04-24T12:10:21.790Z,21.14
2023-04-24T12:12:51.289Z,19.95
2023-04-24T12:15:18.900Z,20.36
2023-04-24T12:17:45.982Z,20.89
2023-04-24T12:20:13.376Z,20.54
2023-04-24T12:22:55.799Z,20.95
2023-04-24T12:25:26.822Z,21.51
2023-04-24T12:28:05.998Z,21.54
2023-04-24T12:30:34.398Z,21.80
2023-04-24T12:33:04.540Z,21.61
2023-04-24T12:35:36.573Z,21.22
2023-04-24T12:38:07.480Z,21.07
2023-04-24T12:40:34.214Z,21.24
2023-04-24T12:43:00.930Z,21.17
2023-04-24T12:45:29.303Z,20.62
2023-04-24T12:47:56.281Z,21.36
2023-04-24T12:50:23.129Z,21.53
2023-04-24T12:52:50.849Z,21.49
2023-04-24T12:55:17.452Z,22.00
2023-04-24T12:57:44.109Z,21.86
2023-04-24T13:00:10.995Z,22.18
2023-04-24T13:02:38.449Z,21.98
2023-04-24T13:05:05.550Z,21.89
2023-04-24T13:07:32.489Z,21.12
2023-04-24T13:09:59.848Z,21.79
2023-04-24T13:12:27.345Z,20.60
2023-04-24T13:14:54.252Z,20.75
2023-04-24T13:17:21.224Z,21.02
2023-04-24T13:19:47.795Z,21.17
2023-04-24T13:22:14.971Z,21.18
2023-04-24T13:24:42.597Z,21.45
2023-04-24T13:27:09.968Z,20.73
2023-04-24T13:29:37.154Z,20.60
2023-04-24T13:32:04.013Z,20.31
2023-04-24T13:34:31.567Z,19.27
2023-04-24T13:36:59.323Z,19.68
2023-04-24T13:39:26.796Z,19.61
2023-04-24T13:41:54.368Z,19.87
2023-04-24T13:44:22.675Z,19.02
2023-04-24T13:46:50.914Z,19.86
2023-04-24T13:49:17.947Z,19.54
2023-04-24T13:51:45.149Z,19.66
2023-04-24T13:54:12.141Z,19.42
2023-04-24T13:56:39.896Z,19.24
2023-04-24T13:59:06.602Z,19.48
2023-04-24T14:01:34.933Z,20.35
2023-04-24T14:04:03.332Z,19.89
2023-04-24T14:06:30.470Z,19.29
2023-04-24T14:08:57.428Z,19.85
2023-04-24T14:11:24.556Z,19.92
2023-04-24T14:13:51.760Z,19.75
2023-04-24T14:16:18.669Z,20.34
2023-04-24T14:18:45.610Z,19.97
2023-04-24T14:21:13.686Z,19.89
2023-04-24T14:23:41.753Z,20.07
2023-04-24T14:26:08.863Z,20.35
2023-04-24T14:28:35.500Z,20.54
2023-04-24T14:31:03.180Z,19.74
2023-04-24T14:33:30.169Z,19.82
2023-04-24T14:35:56.948Z,19.03
2023-04-24T14:38:23.572Z,18.15
2023-04-24T14:41:05.655Z,18.29
2023-04-24T14:43:33.751Z,18.37
2023-04-24T14:46:00.536Z,18.33
2023-04-24T14:48:27.291Z,19.01
2023-04-24T14:50:54.471Z,19.47
2023-04-24T14:53:21.667Z,18.98
2023-04-24T14:55:48.529Z,19.09
2023-04-24T14:58:16.696Z,19.88
2023-04-24T15:00:43.534Z,18.88
2023-04-24T15:03:11.472Z,19.57
2023-04-24T15:05:38.954Z,20.00
2023-04-24T15:08:06.254Z,20.12
2023-04-24T15:10:33.434Z,19.84
2023-04-24T15:13:00.479Z,20.03
2023-04-24T15:15:27.965Z,18.03
2023-04-24T15:17:55.103Z,19.27
2023-04-24T15:20:22.510Z,17.25
2023-04-24T15:22:49.825Z,17.54
2023-04-24T15:25:16.784Z,17.19
2023-04-24T15:27:49.631Z,17.16
2023-04-24T15:30:16.904Z,16.87
2023-04-24T15:32:58.922Z,17.12
2023-04-24T15:35:25.889Z,17.70
2023-04-24T15:37:53.917Z,17.46
2023-04-24T15:40:20.769Z,17.38
2023-04-24T15:42:47.929Z,17.71
2023-04-24T15:45:15.455Z,16.59
2023-04-24T15:47:43.107Z,17.14
2023-04-24T15:50:14.335Z,17.63
2023-04-24T15:52:42.464Z,18.01
2023-04-24T15:55:11.874Z,17.62
2023-04-24T15:57:39.384Z,18.03
2023-04-24T16:00:07.518Z,17.96
2023-04-24T16:02:34.446Z,17.70
2023-04-24T16:05:02.141Z,17.08
2023-04-24T16:07:30.466Z,15.93
2023-04-24T16:09:57.516Z,15.26
2023-04-24T16:12:28.304Z,14.75
2023-04-24T16:14:55.963Z,16.05
2023-04-24T16:17:28.033Z,14.69
2023-04-24T16:19:58.032Z,15.78
2023-04-24T16:22:28.315Z,14.66
2023-04-24T16:24:55.693Z,14.64
2023-04-24T16:27:22.330Z,15.13
2023-04-24T16:29:49.519Z,14.85
2023-04-24T16:32:16.542Z,14.18
2023-04-24T16:34:43.491Z,14.38
2023-04-24T16:37:10.651Z,14.97
2023-04-24T16:39:38.781Z,14.23
2023-04-24T16:42:06.861Z,14.15
2023-04-24T16:44:33.952Z,15.13
2023-04-24T16:47:01.106Z,14.90
2023-04-24T16:49:31.291Z,14.95
2023-04-24T16:51:58.197Z,14.30
2023-04-24T16:54:28.192Z,14.47
2023-04-24T16:56:55.772Z,14.54
2023-04-24T16:59:23.409Z,14.84
2023-04-24T17:01:50.256Z,14.03
2023-04-24T17:04:18.702Z,14.44
2023-04-24T17:06:48.608Z,14.30
2023-04-24T17:09:16.146Z,13.28
2023-04-24T17:11:43.138Z,13.59
2023-04-24T17:14:09.660Z,13.56
2023-04-24T17:16:37.814Z,14.19
2023-04-24T17:19:05.883Z,14.61
2023-04-24T17:21:33.042Z,14.57
2023-04-24T17:23:59.989Z,14.11
2023-04-24T17:26:26.574Z,14.46
2023-04-24T17:28:55.143Z,14.92
2023-04-24T17:31:21.845Z,14.65
2023-04-24T17:33:48.626Z,14.59
2023-04-24T17:36:15.179Z,14.82
2023-04-24T17:38:41.516Z,15.12
2023-04-24T17:41:08.222Z,14.56
2023-04-24T17:43:34.964Z,14.95
2023-04-24T17:46:02.491Z,14.75
2023-04-24T17:48:38.311Z,14.27
2023-04-24T17:51:04.663Z,14.78
2023-04-24T17:53:32.118Z,14.80
2023-04-24T17:56:01.995Z,14.76
2023-04-24T17:58:29.392Z,15.05
2023-04-24T18:00:56.146Z,14.69
2023-04-24T18:03:23.197Z,14.72
2023-04-24T18:05:49.765Z,15.12
2023-04-24T18:08:16.356Z,14.75
2023-04-24T18:10:44.982Z,14.51
2023-04-24T18:13:12.069Z,14.78
2023-04-24T18:15:42.999Z,14.69
2023-04-24T18:18:11.054Z,14.96
2023-04-24T18:20:38.877Z,14.56
2023-04-24T18:23:07.309Z,14.67
2023-04-24T18:25:33.912Z,14.65
2023-04-24T18:28:00.643Z,14.98
2023-04-24T18:30:28.145Z,14.35
2023-04-24T18:32:54.945Z,14.84
2023-04-24T18:35:22.140Z,14.74
2023-04-24T18:37:49.554Z,14.67
2023-04-24T18:40:16.600Z,14.36
2023-04-24T18:42:43.749Z,14.04
2023-04-24T18:45:13.800Z,14.34
2023-04-24T18:47:43.258Z,13.79
2023-04-24T18:50:12.803Z,13.74
2023-04-24T18:52:40.293Z,14.20
2023-04-24T18:55:07.584Z,14.27
2023-04-24T18:57:35.771Z,13.43
2023-04-24T19:00:03.369Z,14.01
2023-04-24T19:02:31.788Z,14.09
2023-04-24T19:04:59.810Z,14.29
2023-04-24T19:07:29.513Z,13.98
2023-04-24T19:09:56.904Z,14.27
2023-04-24T19:12:30.657Z,14.45
2023-04-24T19:15:03.074Z,13.47
2023-04-24T19:17:32.103Z,14.11
2023-04-24T19:19:59.759Z,14.21
2023-04-24T19:22:31.411Z,14.74
2023-04-24T19:25:01.451Z,14.29
2023-04-24T19:27:28.489Z,14.13
2023-04-24T19:29:58.577Z,14.02
2023-04-24T19:32:28.881Z,14.20
2023-04-24T19:34:58.606Z,14.01
2023-04-24T19:37:29.240Z,13.86
2023-04-24T19:40:03.528Z,13.88
2023-04-24T19:42:43.388Z,14.40
2023-04-24T19:45:14.012Z,14.45
2023-04-24T19:47:41.867Z,14.66
2023-04-24T19:50:18.314Z,14.55
2023-04-24T19:52:51.235Z,14.32
2023-04-24T19:55:21.403Z,14.54
2023-04-24T19:57:53.886Z,13.98
2023-04-24T20:00:24.213Z,14.04
2023-04-24T20:02:54.727Z,14.78
2023-04-24T20:05:21.815Z,14.64
2023-04-24T20:07:51.251Z,14.84
2023-04-24T20:10:31.113Z,15.07
2023-04-24T20:12:58.050Z,14.59
2023-04-24T20:15:24.769Z,14.38
2023-04-24T20:17:51.740Z,14.31
2023-04-24T20:20:18.522Z,14.80
2023-04-24T20:22:46.896Z,14.61
2023-04-24T20:25:15.347Z,13.72
2023-04-24T20:27:42.834Z,14.08
2023-04-24T20:30:13.372Z,14.39
2023-04-24T20:32:42.044Z,14.22
2023-04-24T20:35:09.798Z,14.80
2023-04-24T20:37:37.115Z,13.65
2023-04-24T20:40:06.985Z,14.01
2023-04-24T20:42:34.421Z,14.74
2023-04-24T20:45:02.015Z,14.14
2023-04-24T20:47:28.855Z,13.58
2023-04-24T20:49:55.963Z,13.95
2023-04-24T20:52:22.590Z,14.93
2023-04-24T20:54:49.924Z,13.69
2023-04-24T20:57:16.929Z,13.63
2023-04-24T20:59:43.721Z,13.88
2023-04-24T21:02:12.059Z,14.25
2023-04-24T21:04:39.806Z,14.18
2023-04-24T21:07:07.130Z,14.15
2023-04-24T21:09:35.387Z,14.11
2023-04-24T21:12:04.087Z,14.28
2023-04-24T21:14:31.402Z,13.89
2023-04-24T21:17:00.321Z,14.59
2023-04-24T21:19:27.718Z,14.21
2023-04-24T21:21:55.065Z,14.33
2023-04-24T21:24:23.019Z,13.72
2023-04-24T21:26:51.719Z,13.65
2023-04-24T21:29:19.009Z,14.39
2023-04-24T21:31:47.478Z,14.23
2023-04-24T21:34:16.213Z,13.63
2023-04-24T21:36:43.793Z,14.25
2023-04-24T21:39:11.350Z,13.91
2023-04-24T21:41:38.553Z,14.17
2023-04-24T21:44:06.101Z,14.50
2023-04-24T21:46:34.087Z,14.39
2023-04-24T21:49:02.579Z,14.57
2023-04-24T21:51:29.520Z,14.81
2023-04-24T21:53:56.732Z,14.51
2023-04-24T21:56:23.985Z,14.07
2023-04-24T21:58:50.785Z,15.03
2023-04-24T22:01:17.287Z,13.88
2023-04-24T22:03:43.809Z,13.53
2023-04-24T22:06:10.763Z,14.92
2023-04-24T22:08:38.738Z,14.18
2023-04-24T22:11:13.528Z,14.40
2023-04-24T22:13:47.278Z,14.36
2023-04-24T22:16:14.951Z,14.29
2023-04-24T22:18:47.522Z,14.52
2023-04-24T22:21:14.832Z,14.75
2023-04-24T22:23:42.261Z,14.30
2023-04-24T22:26:08.679Z,14.73
2023-04-24T22:28:35.693Z,14.48
2023-04-24T22:31:02.723Z,15.09
2023-04-24T22:33:30.582Z,14.75
2023-04-24T22:35:57.810Z,14.00
2023-04-24T22:38:26.858Z,14.33
2023-04-24T22:40:54.109Z,14.44
2023-04-24T22:43:20.952Z,14.19
2023-04-24T22:45:47.775Z,14.03
2023-04-24T22:48:14.281Z,14.17
2023-04-24T22:50:42.095Z,14.39
2023-04-24T22:53:09.537Z,14.03
2023-04-24T22:55:36.441Z,14.24
2023-04-24T22:58:04.071Z,14.13
2023-04-24T23:00:31.262Z,14.44
2023-04-24T23:02:59.384Z,14.52
2023-04-24T23:05:26.939Z,14.15
2023-04-24T23:07:55.167Z,14.76
2023-04-24T23:10:23.233Z,14.56
2023-04-24T23:12:49.838Z,14.55
2023-04-24T23:15:16.797Z,13.90
2023-04-24T23:17:43.600Z,14.31
2023-04-24T23:20:14.467Z,14.25
2023-04-24T23:22:41.916Z,14.11
2023-04-24T23:25:10.273Z,14.23
2023-04-24T23:27:37.950Z,14.62
2023-04-24T23:30:08.256Z,14.53
2023-04-24T23:32:34.926Z,14.59
2023-04-24T23:35:02.489Z,14.78
2023-04-24T23:37:29.215Z,14.73
2023-04-24T23:39:56.228Z,14.13
2023-04-24T23:42:23.468Z,14.48
2023-04-24T23:44:51.212Z,14.68
2023-04-24T23:47:18.245Z,14.68
2023-04-24T23:49:45.063Z,13.85
2023-04-24T23:52:12.038Z,14.80
2023-04-24T23:54:39.977Z,14.95
2023-04-24T23:57:06.820Z,14.81
2023-04-24T23:59:33.375Z,14.82
